createdAt,value
2022-09-16T00:01:20.109Z,13.70
2022-09-16T00:03:47.998Z,13.70
2022-09-16T00:06:28.890Z,13.60
2022-09-16T00:09:01.122Z,13.60
2022-09-16T00:11:31.285Z,13.60
2022-09-16T00:13:58.375Z,13.60
2022-09-16T00:16:28.032Z,13.60
2022-09-16T00:18:58.076Z,13.60
2022-09-16T00:21:26.196Z,13.50
2022-09-16T00:23:55.712Z,13.60
2022-09-16T00:26:23.440Z,13.70
2022-09-16T00:28:53.043Z,13.70
2022-09-16T00:31:20.902Z,13.60
2022-09-16T00:33:48.214Z,13.60
2022-09-16T00:36:20.682Z,13.60
2022-09-16T00:39:02.046Z,13.60
2022-09-16T00:41:33.936Z,13.50
2022-09-16T00:44:07.593Z,13.60
2022-09-16T00:46:48.283Z,13.50
2022-09-16T00:49:27.333Z,13.50
2022-09-16T00:51:59.114Z,13.50
2022-09-16T00:54:26.707Z,13.50
2022-09-16T12:55:07.344Z,16.40
2022-09-16T12:58:04.310Z,18.00
2022-09-16T13:01:00.860Z,17.90
2022-09-16T13:03:31.510Z,18.30
2022-09-16T13:06:06.334Z,18.70
2022-09-16T13:08:34.674Z,18.80
2022-09-16T13:13:58.215Z,18.40
2022-09-16T13:16:37.018Z,18.00
2022-09-16T13:19:22.523Z,17.40
2022-09-16T13:21:54.600Z,16.80
2022-09-16T13:24:35.200Z,16.70
2022-09-16T13:27:02.117Z,16.30
2022-09-16T13:29:37.845Z,15.90
2022-09-16T13:32:05.170Z,15.40
2022-09-16T13:34:31.968Z,15.30
2022-09-16T13:36:58.801Z,15.00
2022-09-16T13:39:34.278Z,15.10
2022-09-16T13:42:18.216Z,14.80
2022-09-16T13:44:45.028Z,14.80
2022-09-16T13:47:12.166Z,14.80
2022-09-16T13:49:56.612Z,14.80
2022-09-16T13:52:29.282Z,14.70
2022-09-16T13:55:11.051Z,15.00
2022-09-16T13:57:56.300Z,15.60
2022-09-16T14:00:32.421Z,16.40
2022-09-16T14:03:21.267Z,16.70
2022-09-16T14:06:21.033Z,16.60
2022-09-16T14:08:59.781Z,17.10
2022-09-16T14:11:52.773Z,18.30
2022-09-16T14:17:41.269Z,18.00
2022-09-16T14:20:16.857Z,18.00
2022-09-16T14:22:44.646Z,18.20
2022-09-16T14:25:32.398Z,18.40
2022-09-16T14:28:23.158Z,17.90
2022-09-16T14:30:54.350Z,18.10
2022-09-16T14:33:58.972Z,18.30
2022-09-16T14:36:40.563Z,18.50
2022-09-16T14:39:07.515Z,18.60
2022-09-16T14:41:44.764Z,18.70
2022-09-16T14:44:42.472Z,18.50
2022-09-16T14:47:39.816Z,18.50
2022-09-16T14:50:20.169Z,18.40
2022-09-16T14:53:02.162Z,18.30
2022-09-16T14:55:36.229Z,18.10
2022-09-16T14:58:03.483Z,17.70
2022-09-16T15:00:38.450Z,17.70
2022-09-16T15:03:40.324Z,17.70
2022-09-16T15:06:13.474Z,17.70
2022-09-16T15:08:50.979Z,17.70
2022-09-16T15:11:47.151Z,17.90
2022-09-16T15:14:14.031Z,18.20
2022-09-16T15:16:46.998Z,17.70
2022-09-16T15:19:21.450Z,17.20
2022-09-16T15:21:48.786Z,17.50
2022-09-16T15:24:21.999Z,17.70
2022-09-16T15:26:49.373Z,17.40
2022-09-16T15:29:18.871Z,17.00
2022-09-16T15:31:47.108Z,17.00
2022-09-16T15:34:22.771Z,16.80
2022-09-16T15:36:59.962Z,16.60
2022-09-16T15:39:35.768Z,16.60
2022-09-16T15:42:13.014Z,16.30
2022-09-16T15:44:50.812Z,16.00
2022-09-16T15:47:22.587Z,15.70
2022-09-16T15:50:03.039Z,15.70
2022-09-16T15:52:34.367Z,15.90
2022-09-16T15:55:05.172Z,15.90
2022-09-16T15:57:40.702Z,15.90
2022-09-16T16:00:16.529Z,15.80
2022-09-16T16:02:54.806Z,16.00
2022-09-16T16:05:28.138Z,16.30
2022-09-16T16:07:59.764Z,16.20
2022-09-16T16:10:31.294Z,16.00
2022-09-16T16:13:00.047Z,16.30
2022-09-16T16:15:38.993Z,16.20
2022-09-16T16:18:07.954Z,16.10
2022-09-16T16:20:37.213Z,15.90
2022-09-16T16:23:04.274Z,16.20
2022-09-16T16:25:31.184Z,16.10
2022-09-16T16:27:57.954Z,16.10
2022-09-16T16:30:24.703Z,15.80
2022-09-16T16:32:51.938Z,15.80
2022-09-16T16:35:18.784Z,15.70
2022-09-16T16:37:47.094Z,15.70
2022-09-16T16:40:15.202Z,15.70
2022-09-16T16:42:43.742Z,15.70
2022-09-16T16:45:15.063Z,15.50
2022-09-16T16:47:42.928Z,15.40
2022-09-16T16:50:10.658Z,15.20
2022-09-16T16:52:37.660Z,15.40
2022-09-16T16:55:05.438Z,15.40
2022-09-16T16:57:32.242Z,15.30
2022-09-16T16:59:59.023Z,15.20
2022-09-16T17:02:26.321Z,15.10
2022-09-16T17:04:53.627Z,15.00
2022-09-16T17:07:28.291Z,14.90
2022-09-16T17:09:57.677Z,15.00
2022-09-16T17:12:24.917Z,15.00
2022-09-16T17:14:51.874Z,14.90
2022-09-16T17:17:19.026Z,14.80
2022-09-16T17:19:45.852Z,14.70
2022-09-16T17:22:12.895Z,14.60
2022-09-16T17:24:39.643Z,14.50
2022-09-16T17:27:06.757Z,14.50
2022-09-16T17:29:33.523Z,14.50
2022-09-16T17:32:02.623Z,14.40
2022-09-16T17:34:30.098Z,14.40
2022-09-16T17:36:58.376Z,14.40
2022-09-16T17:39:26.121Z,14.30
2022-09-16T17:41:54.493Z,14.30
2022-09-16T17:44:21.858Z,14.30
2022-09-16T17:46:48.704Z,14.30
2022-09-16T17:49:21.885Z,14.20
2022-09-16T17:51:49.529Z,14.10
2022-09-16T17:54:16.822Z,14.00
2022-09-16T17:56:44.059Z,14.00
2022-09-16T17:59:12.676Z,14.00
2022-09-16T18:01:40.208Z,13.90
2022-09-16T18:04:07.980Z,13.90
2022-09-16T18:06:45.963Z,13.90
2022-09-16T18:09:13.709Z,13.80
